sensor_id;sensor_type;location;lat;lon;timestamp;P1;durP1;ratioP1;P2;durP2;ratioP2
34405;SDS011;20658;45.630;8.886;2024-02-26T00:00:29;27.77;;;18.55;;
34405;SDS011;20658;45.630;8.886;2024-02-26T00:03:03;25.52;;;17.50;;
34405;SDS011;20658;45.630;8.886;2024-02-26T00:05:37;25.40;;;16.88;;
34405;SDS011;20658;45.630;8.886;2024-02-26T00:08:06;28.45;;;17.92;;
34405;SDS011;20658;45.630;8.886;2024-02-26T00:10:39;26.85;;;18.05;;
34405;SDS011;20658;45.630;8.886;2024-02-26T00:13:14;27.48;;;17.77;;
34405;SDS011;20658;45.630;8.886;2024-02-26T00:15:48;25.65;;;15.73;;
34405;SDS011;20658;45.630;8.886;2024-02-26T00:18:17;24.35;;;15.57;;
34405;SDS011;20658;45.630;8.886;2024-02-26T00:20:46;23.92;;;14.57;;
34405;SDS011;20658;45.630;8.886;2024-02-26T00:23:19;27.95;;;14.20;;
34405;SDS011;20658;45.630;8.886;2024-02-26T00:25:54;24.67;;;13.63;;
34405;SDS011;20658;45.630;8.886;2024-02-26T00:28:27;20.25;;;11.68;;
34405;SDS011;20658;45.630;8.886;2024-02-26T00:31:03;19.85;;;12.23;;
34405;SDS011;20658;45.630;8.886;2024-02-26T00:33:36;18.55;;;10.63;;
34405;SDS011;20658;45.630;8.886;2024-02-26T00:36:10;19.55;;;10.35;;
34405;SDS011;20658;45.630;8.886;2024-02-26T00:38:38;17.30;;;9.07;;
34405;SDS011;20658;45.630;8.886;2024-02-26T00:41:12;19.13;;;9.73;;
34405;SDS011;20658;45.630;8.886;2024-02-26T00:43:46;16.73;;;9.32;;
34405;SDS011;20658;45.630;8.886;2024-02-26T00:46:16;18.52;;;10.32;;
34405;SDS011;20658;45.630;8.886;2024-02-26T00:48:44;20.45;;;10.32;;
34405;SDS011;20658;45.630;8.886;2024-02-26T00:51:13;19.02;;;9.25;;
34405;SDS011;20658;45.630;8.886;2024-02-26T00:53:46;16.50;;;9.23;;
34405;SDS011;20658;45.630;8.886;2024-02-26T00:56:15;17.15;;;9.15;;
34405;SDS011;20658;45.630;8.886;2024-02-26T00:58:48;15.38;;;9.13;;
34405;SDS011;20658;45.630;8.886;2024-02-26T01:01:24;17.20;;;10.38;;
34405;SDS011;20658;45.630;8.886;2024-02-26T01:03:57;15.93;;;8.93;;
34405;SDS011;20658;45.630;8.886;2024-02-26T01:06:30;15.07;;;9.23;;
34405;SDS011;20658;45.630;8.886;2024-02-26T01:08:59;17.77;;;9.48;;
34405;SDS011;20658;45.630;8.886;2024-02-26T01:11:32;17.33;;;10.50;;
34405;SDS011;20658;45.630;8.886;2024-02-26T01:14:01;16.60;;;9.60;;
34405;SDS011;20658;45.630;8.886;2024-02-26T01:16:31;16.58;;;10.30;;
34405;SDS011;20658;45.630;8.886;2024-02-26T01:19:05;15.40;;;8.52;;
34405;SDS011;20658;45.630;8.886;2024-02-26T01:21:38;20.20;;;11.35;;
34405;SDS011;20658;45.630;8.886;2024-02-26T01:24:12;18.25;;;11.00;;
34405;SDS011;20658;45.630;8.886;2024-02-26T01:26:46;19.77;;;11.27;;
34405;SDS011;20658;45.630;8.886;2024-02-26T01:29:15;19.65;;;12.38;;
34405;SDS011;20658;45.630;8.886;2024-02-26T01:31:45;20.65;;;11.68;;
34405;SDS011;20658;45.630;8.886;2024-02-26T01:34:18;19.05;;;11.35;;
34405;SDS011;20658;45.630;8.886;2024-02-26T01:36:52;16.55;;;10.80;;
34405;SDS011;20658;45.630;8.886;2024-02-26T01:39:27;19.58;;;11.18;;
34405;SDS011;20658;45.630;8.886;2024-02-26T01:41:56;20.15;;;11.07;;
34405;SDS011;20658;45.630;8.886;2024-02-26T01:44:25;18.02;;;11.43;;
34405;SDS011;20658;45.630;8.886;2024-02-26T01:47:01;18.90;;;11.27;;
34405;SDS011;20658;45.630;8.886;2024-02-26T01:49:30;23.60;;;12.23;;
34405;SDS011;20658;45.630;8.886;2024-02-26T01:52:03;23.17;;;12.20;;
34405;SDS011;20658;45.630;8.886;2024-02-26T01:54:38;20.08;;;11.30;;
34405;SDS011;20658;45.630;8.886;2024-02-26T01:57:13;22.65;;;12.32;;
34405;SDS011;20658;45.630;8.886;2024-02-26T01:59:42;17.85;;;10.52;;
34405;SDS011;20658;45.630;8.886;2024-02-26T02:02:12;17.70;;;9.70;;
34405;SDS011;20658;45.630;8.886;2024-02-26T02:04:43;17.77;;;10.20;;
34405;SDS011;20658;45.630;8.886;2024-02-26T02:07:11;20.70;;;9.70;;
34405;SDS011;20658;45.630;8.886;2024-02-26T02:09:40;61.05;;;15.85;;
34405;SDS011;20658;45.630;8.886;2024-02-26T02:12:14;16.83;;;9.35;;
34405;SDS011;20658;45.630;8.886;2024-02-26T02:14:43;16.23;;;9.27;;
34405;SDS011;20658;45.630;8.886;2024-02-26T02:17:18;13.23;;;6.90;;
34405;SDS011;20658;45.630;8.886;2024-02-26T02:19:52;13.43;;;7.55;;
34405;SDS011;20658;45.630;8.886;2024-02-26T02:22:22;16.27;;;8.98;;
34405;SDS011;20658;45.630;8.886;2024-02-26T02:24:51;13.35;;;7.75;;
34405;SDS011;20658;45.630;8.886;2024-02-26T02:27:20;13.43;;;7.45;;
34405;SDS011;20658;45.630;8.886;2024-02-26T02:29:49;12.88;;;7.15;;
34405;SDS011;20658;45.630;8.886;2024-02-26T02:32:23;12.98;;;6.75;;
34405;SDS011;20658;45.630;8.886;2024-02-26T02:34:53;12.38;;;6.85;;
34405;SDS011;20658;45.630;8.886;2024-02-26T02:37:22;12.13;;;6.53;;
34405;SDS011;20658;45.630;8.886;2024-02-26T02:39:56;8.57;;;5.75;;
34405;SDS011;20658;45.630;8.886;2024-02-26T02:42:30;10.75;;;5.35;;
34405;SDS011;20658;45.630;8.886;2024-02-26T02:44:58;12.77;;;5.95;;
34405;SDS011;20658;45.630;8.886;2024-02-26T02:47:27;10.25;;;5.68;;
34405;SDS011;20658;45.630;8.886;2024-02-26T02:50:01;11.35;;;5.50;;
34405;SDS011;20658;45.630;8.886;2024-02-26T02:52:31;10.23;;;5.18;;
34405;SDS011;20658;45.630;8.886;2024-02-26T02:55:04;10.38;;;5.45;;
34405;SDS011;20658;45.630;8.886;2024-02-26T02:57:38;11.93;;;5.43;;
34405;SDS011;20658;45.630;8.886;2024-02-26T03:00:09;10.63;;;5.32;;
34405;SDS011;20658;45.630;8.886;2024-02-26T03:02:44;10.50;;;4.97;;
34405;SDS011;20658;45.630;8.886;2024-02-26T03:05:17;8.38;;;5.10;;
34405;SDS011;20658;45.630;8.886;2024-02-26T03:07:47;9.80;;;4.88;;
34405;SDS011;20658;45.630;8.886;2024-02-26T03:10:16;11.55;;;5.05;;
34405;SDS011;20658;45.630;8.886;2024-02-26T03:12:50;9.60;;;4.95;;
34405;SDS011;20658;45.630;8.886;2024-02-26T03:15:18;8.30;;;4.85;;
34405;SDS011;20658;45.630;8.886;2024-02-26T03:17:47;13.73;;;5.60;;
34405;SDS011;20658;45.630;8.886;2024-02-26T03:20:20;11.50;;;5.80;;
34405;SDS011;20658;45.630;8.886;2024-02-26T03:22:55;12.25;;;5.47;;
34405;SDS011;20658;45.630;8.886;2024-02-26T03:25:24;11.40;;;5.85;;
34405;SDS011;20658;45.630;8.886;2024-02-26T03:27:52;12.02;;;6.22;;
34405;SDS011;20658;45.630;8.886;2024-02-26T03:30:20;14.88;;;6.15;;
34405;SDS011;20658;45.630;8.886;2024-02-26T03:32:49;11.40;;;5.93;;
34405;SDS011;20658;45.630;8.886;2024-02-26T03:35:22;10.50;;;5.82;;
34405;SDS011;20658;45.630;8.886;2024-02-26T03:37:51;10.50;;;5.30;;
34405;SDS011;20658;45.630;8.886;2024-02-26T03:40:21;13.77;;;6.15;;
34405;SDS011;20658;45.630;8.886;2024-02-26T03:42:55;9.48;;;4.93;;
34405;SDS011;20658;45.630;8.886;2024-02-26T03:45:24;12.05;;;6.85;;
34405;SDS011;20658;45.630;8.886;2024-02-26T03:47:59;16.38;;;7.05;;
34405;SDS011;20658;45.630;8.886;2024-02-26T03:50:32;11.60;;;6.70;;
34405;SDS011;20658;45.630;8.886;2024-02-26T03:53:01;16.60;;;6.28;;
34405;SDS011;20658;45.630;8.886;2024-02-26T03:55:31;14.25;;;6.75;;
34405;SDS011;20658;45.630;8.886;2024-02-26T03:58:04;9.85;;;5.72;;
34405;SDS011;20658;45.630;8.886;2024-02-26T04:00:38;10.68;;;6.00;;
34405;SDS011;20658;45.630;8.886;2024-02-26T04:03:06;10.90;;;5.45;;
34405;SDS011;20658;45.630;8.886;2024-02-26T04:05:35;10.10;;;5.50;;
34405;SDS011;20658;45.630;8.886;2024-02-26T04:08:04;13.05;;;5.45;;
34405;SDS011;20658;45.630;8.886;2024-02-26T04:10:35;15.18;;;5.53;;
34405;SDS011;20658;45.630;8.886;2024-02-26T04:13:10;12.07;;;5.60;;
34405;SDS011;20658;45.630;8.886;2024-02-26T04:15:43;12.73;;;5.25;;
34405;SDS011;20658;45.630;8.886;2024-02-26T04:18:12;10.57;;;5.03;;
34405;SDS011;20658;45.630;8.886;2024-02-26T04:20:41;15.35;;;6.10;;
34405;SDS011;20658;45.630;8.886;2024-02-26T04:23:10;12.05;;;5.03;;
34405;SDS011;20658;45.630;8.886;2024-02-26T04:25:40;11.85;;;3.92;;
34405;SDS011;20658;45.630;8.886;2024-02-26T04:28:13;10.20;;;3.67;;
34405;SDS011;20658;45.630;8.886;2024-02-26T04:30:42;11.32;;;4.80;;
34405;SDS011;20658;45.630;8.886;2024-02-26T04:33:15;10.73;;;4.70;;
34405;SDS011;20658;45.630;8.886;2024-02-26T04:35:49;21.90;;;6.90;;
34405;SDS011;20658;45.630;8.886;2024-02-26T04:38:17;13.95;;;6.07;;
34405;SDS011;20658;45.630;8.886;2024-02-26T04:40:47;7.72;;;3.78;;
34405;SDS011;20658;45.630;8.886;2024-02-26T04:43:21;9.57;;;4.75;;
34405;SDS011;20658;45.630;8.886;2024-02-26T04:45:49;11.82;;;4.85;;
34405;SDS011;20658;45.630;8.886;2024-02-26T04:48:19;7.75;;;3.80;;
34405;SDS011;20658;45.630;8.886;2024-02-26T04:50:47;8.80;;;3.97;;
34405;SDS011;20658;45.630;8.886;2024-02-26T04:53:21;11.18;;;4.40;;
34405;SDS011;20658;45.630;8.886;2024-02-26T04:55:56;7.50;;;4.20;;
34405;SDS011;20658;45.630;8.886;2024-02-26T04:58:29;7.82;;;3.88;;
34405;SDS011;20658;45.630;8.886;2024-02-26T05:00:58;8.98;;;5.00;;
34405;SDS011;20658;45.630;8.886;2024-02-26T05:03:32;7.10;;;3.92;;
34405;SDS011;20658;45.630;8.886;2024-02-26T05:06:00;8.73;;;3.58;;
34405;SDS011;20658;45.630;8.886;2024-02-26T05:08:29;12.02;;;4.30;;
34405;SDS011;20658;45.630;8.886;2024-02-26T05:11:04;6.13;;;3.55;;
34405;SDS011;20658;45.630;8.886;2024-02-26T05:13:37;8.13;;;4.20;;
34405;SDS011;20658;45.630;8.886;2024-02-26T05:16:11;9.68;;;5.15;;
34405;SDS011;20658;45.630;8.886;2024-02-26T05:18:44;12.85;;;4.78;;
34405;SDS011;20658;45.630;8.886;2024-02-26T05:21:13;8.40;;;4.10;;
34405;SDS011;20658;45.630;8.886;2024-02-26T05:23:42;7.40;;;4.63;;
34405;SDS011;20658;45.630;8.886;2024-02-26T05:26:12;13.07;;;5.82;;
34405;SDS011;20658;45.630;8.886;2024-02-26T05:28:52;11.00;;;5.05;;
34405;SDS011;20658;45.630;8.886;2024-02-26T05:31:26;10.63;;;4.60;;
34405;SDS011;20658;45.630;8.886;2024-02-26T05:34:00;11.10;;;4.93;;
34405;SDS011;20658;45.630;8.886;2024-02-26T05:36:28;10.07;;;5.05;;
34405;SDS011;20658;45.630;8.886;2024-02-26T05:39:04;12.60;;;5.00;;
34405;SDS011;20658;45.630;8.886;2024-02-26T05:41:34;10.60;;;4.93;;
34405;SDS011;20658;45.630;8.886;2024-02-26T05:44:03;11.73;;;5.13;;
34405;SDS011;20658;45.630;8.886;2024-02-26T05:46:32;12.77;;;5.15;;
34405;SDS011;20658;45.630;8.886;2024-02-26T05:49:00;9.77;;;4.20;;
34405;SDS011;20658;45.630;8.886;2024-02-26T05:51:29;10.85;;;4.55;;
34405;SDS011;20658;45.630;8.886;2024-02-26T05:53:58;10.07;;;4.47;;
34405;SDS011;20658;45.630;8.886;2024-02-26T05:56:27;11.02;;;4.65;;
34405;SDS011;20658;45.630;8.886;2024-02-26T05:58:57;9.27;;;4.25;;
34405;SDS011;20658;45.630;8.886;2024-02-26T06:01:25;9.27;;;3.65;;
34405;SDS011;20658;45.630;8.886;2024-02-26T06:03:54;10.27;;;3.75;;
34405;SDS011;20658;45.630;8.886;2024-02-26T06:06:23;7.32;;;3.78;;
34405;SDS011;20658;45.630;8.886;2024-02-26T06:08:56;7.15;;;3.83;;
34405;SDS011;20658;45.630;8.886;2024-02-26T06:11:25;11.30;;;3.80;;
34405;SDS011;20658;45.630;8.886;2024-02-26T06:14:00;6.55;;;3.17;;
34405;SDS011;20658;45.630;8.886;2024-02-26T06:16:29;8.50;;;4.00;;
34405;SDS011;20658;45.630;8.886;2024-02-26T06:18:57;8.80;;;3.45;;
34405;SDS011;20658;45.630;8.886;2024-02-26T06:21:26;12.68;;;4.07;;
34405;SDS011;20658;45.630;8.886;2024-02-26T06:23:55;10.85;;;4.03;;
34405;SDS011;20658;45.630;8.886;2024-02-26T06:26:23;6.97;;;3.63;;
34405;SDS011;20658;45.630;8.886;2024-02-26T06:29:01;8.10;;;3.97;;
34405;SDS011;20658;45.630;8.886;2024-02-26T06:31:30;6.57;;;3.53;;
34405;SDS011;20658;45.630;8.886;2024-02-26T06:33:58;9.27;;;3.25;;
34405;SDS011;20658;45.630;8.886;2024-02-26T06:36:27;8.20;;;3.85;;
34405;SDS011;20658;45.630;8.886;2024-02-26T06:38:55;8.60;;;3.95;;
34405;SDS011;20658;45.630;8.886;2024-02-26T06:41:29;8.95;;;3.95;;
34405;SDS011;20658;45.630;8.886;2024-02-26T06:44:04;8.60;;;4.10;;
34405;SDS011;20658;45.630;8.886;2024-02-26T06:46:32;7.13;;;3.92;;
34405;SDS011;20658;45.630;8.886;2024-02-26T06:49:06;7.97;;;4.22;;
34405;SDS011;20658;45.630;8.886;2024-02-26T06:51:34;7.63;;;3.55;;
34405;SDS011;20658;45.630;8.886;2024-02-26T06:54:08;13.55;;;4.18;;
34405;SDS011;20658;45.630;8.886;2024-02-26T06:56:37;8.93;;;4.65;;
34405;SDS011;20658;45.630;8.886;2024-02-26T06:59:11;11.73;;;4.10;;
34405;SDS011;20658;45.630;8.886;2024-02-26T07:01:41;10.05;;;4.68;;
34405;SDS011;20658;45.630;8.886;2024-02-26T07:04:15;12.23;;;5.72;;
34405;SDS011;20658;45.630;8.886;2024-02-26T07:06:43;9.38;;;4.20;;
34405;SDS011;20658;45.630;8.886;2024-02-26T07:09:13;9.55;;;5.50;;
34405;SDS011;20658;45.630;8.886;2024-02-26T07:11:42;8.50;;;5.10;;
34405;SDS011;20658;45.630;8.886;2024-02-26T07:14:17;16.35;;;6.68;;
34405;SDS011;20658;45.630;8.886;2024-02-26T07:16:45;12.60;;;5.95;;
34405;SDS011;20658;45.630;8.886;2024-02-26T07:19:14;12.48;;;6.07;;
34405;SDS011;20658;45.630;8.886;2024-02-26T07:21:42;14.60;;;8.60;;
34405;SDS011;20658;45.630;8.886;2024-02-26T07:24:11;11.45;;;5.03;;
34405;SDS011;20658;45.630;8.886;2024-02-26T07:26:41;8.38;;;4.45;;
34405;SDS011;20658;45.630;8.886;2024-02-26T07:29:09;9.18;;;4.53;;
34405;SDS011;20658;45.630;8.886;2024-02-26T07:31:39;9.30;;;4.25;;
34405;SDS011;20658;45.630;8.886;2024-02-26T07:34:07;9.27;;;3.90;;
34405;SDS011;20658;45.630;8.886;2024-02-26T07:36:41;8.27;;;4.00;;
34405;SDS011;20658;45.630;8.886;2024-02-26T07:39:10;8.57;;;4.95;;
34405;SDS011;20658;45.630;8.886;2024-02-26T07:41:43;8.63;;;4.07;;
34405;SDS011;20658;45.630;8.886;2024-02-26T07:44:16;13.25;;;5.00;;
34405;SDS011;20658;45.630;8.886;2024-02-26T07:46:46;7.95;;;4.38;;
34405;SDS011;20658;45.630;8.886;2024-02-26T07:49:14;7.10;;;3.90;;
34405;SDS011;20658;45.630;8.886;2024-02-26T07:51:43;8.50;;;4.13;;
34405;SDS011;20658;45.630;8.886;2024-02-26T07:54:11;10.10;;;3.92;;
34405;SDS011;20658;45.630;8.886;2024-02-26T07:56:42;9.18;;;4.68;;
34405;SDS011;20658;45.630;8.886;2024-02-26T07:59:16;7.45;;;4.45;;
34405;SDS011;20658;45.630;8.886;2024-02-26T08:01:50;8.40;;;4.57;;
34405;SDS011;20658;45.630;8.886;2024-02-26T08:04:18;11.57;;;5.20;;
34405;SDS011;20658;45.630;8.886;2024-02-26T08:06:47;8.95;;;4.30;;
34405;SDS011;20658;45.630;8.886;2024-02-26T08:09:15;8.63;;;5.07;;
34405;SDS011;20658;45.630;8.886;2024-02-26T08:11:44;9.80;;;5.50;;
34405;SDS011;20658;45.630;8.886;2024-02-26T08:14:12;12.68;;;5.93;;
34405;SDS011;20658;45.630;8.886;2024-02-26T08:16:41;11.82;;;5.95;;
34405;SDS011;20658;45.630;8.886;2024-02-26T08:19:11;9.40;;;5.93;;
34405;SDS011;20658;45.630;8.886;2024-02-26T08:21:41;9.10;;;6.53;;
34405;SDS011;20658;45.630;8.886;2024-02-26T08:24:09;8.68;;;5.25;;
34405;SDS011;20658;45.630;8.886;2024-02-26T08:26:38;15.57;;;7.53;;
34405;SDS011;20658;45.630;8.886;2024-02-26T08:29:07;11.57;;;6.63;;
34405;SDS011;20658;45.630;8.886;2024-02-26T08:31:35;11.85;;;6.78;;
34405;SDS011;20658;45.630;8.886;2024-02-26T08:34:04;12.65;;;6.45;;
34405;SDS011;20658;45.630;8.886;2024-02-26T08:36:39;16.02;;;6.53;;
34405;SDS011;20658;45.630;8.886;2024-02-26T08:39:14;13.70;;;6.30;;
34405;SDS011;20658;45.630;8.886;2024-02-26T08:41:44;9.18;;;5.15;;
34405;SDS011;20658;45.630;8.886;2024-02-26T08:44:12;10.60;;;5.28;;
34405;SDS011;20658;45.630;8.886;2024-02-26T08:46:41;10.15;;;5.55;;
34405;SDS011;20658;45.630;8.886;2024-02-26T08:49:09;17.38;;;10.68;;
34405;SDS011;20658;45.630;8.886;2024-02-26T08:51:42;12.88;;;4.72;;
34405;SDS011;20658;45.630;8.886;2024-02-26T08:54:11;11.43;;;5.38;;
34405;SDS011;20658;45.630;8.886;2024-02-26T08:56:40;9.70;;;4.75;;
34405;SDS011;20658;45.630;8.886;2024-02-26T08:59:09;7.18;;;3.67;;
34405;SDS011;20658;45.630;8.886;2024-02-26T09:01:37;8.32;;;3.90;;
34405;SDS011;20658;45.630;8.886;2024-02-26T09:04:06;8.45;;;3.95;;
34405;SDS011;20658;45.630;8.886;2024-02-26T09:06:34;11.23;;;4.57;;
34405;SDS011;20658;45.630;8.886;2024-02-26T09:09:04;8.07;;;4.55;;
34405;SDS011;20658;45.630;8.886;2024-02-26T09:11:33;12.65;;;4.15;;
34405;SDS011;20658;45.630;8.886;2024-02-26T09:14:01;7.88;;;4.30;;
34405;SDS011;20658;45.630;8.886;2024-02-26T09:16:35;8.00;;;4.03;;
34405;SDS011;20658;45.630;8.886;2024-02-26T09:19:04;8.27;;;4.10;;
34405;SDS011;20658;45.630;8.886;2024-02-26T09:21:32;10.02;;;3.55;;
34405;SDS011;20658;45.630;8.886;2024-02-26T09:24:01;7.75;;;3.53;;
34405;SDS011;20658;45.630;8.886;2024-02-26T09:26:31;6.97;;;3.60;;
34405;SDS011;20658;45.630;8.886;2024-02-26T09:29:05;7.65;;;3.42;;
34405;SDS011;20658;45.630;8.886;2024-02-26T09:31:34;9.50;;;3.97;;
34405;SDS011;20658;45.630;8.886;2024-02-26T09:34:03;14.02;;;5.32;;
34405;SDS011;20658;45.630;8.886;2024-02-26T09:36:31;13.45;;;5.05;;
34405;SDS011;20658;45.630;8.886;2024-02-26T09:39:00;13.38;;;6.18;;
34405;SDS011;20658;45.630;8.886;2024-02-26T09:41:35;11.90;;;5.18;;
34405;SDS011;20658;45.630;8.886;2024-02-26T09:44:04;10.80;;;4.88;;
34405;SDS011;20658;45.630;8.886;2024-02-26T09:46:38;9.77;;;4.38;;
34405;SDS011;20658;45.630;8.886;2024-02-26T09:49:07;10.32;;;3.95;;
34405;SDS011;20658;45.630;8.886;2024-02-26T09:51:42;13.30;;;5.18;;
34405;SDS011;20658;45.630;8.886;2024-02-26T09:54:11;7.72;;;4.03;;
34405;SDS011;20658;45.630;8.886;2024-02-26T09:56:43;9.63;;;4.35;;
34405;SDS011;20658;45.630;8.886;2024-02-26T09:59:20;10.57;;;4.45;;
34405;SDS011;20658;45.630;8.886;2024-02-26T10:01:54;12.13;;;6.00;;
34405;SDS011;20658;45.630;8.886;2024-02-26T10:04:24;8.48;;;4.03;;
34405;SDS011;20658;45.630;8.886;2024-02-26T10:06:54;9.90;;;5.55;;
34405;SDS011;20658;45.630;8.886;2024-02-26T10:09:23;11.30;;;5.00;;
34405;SDS011;20658;45.630;8.886;2024-02-26T10:11:58;13.70;;;5.55;;
34405;SDS011;20658;45.630;8.886;2024-02-26T10:14:27;11.32;;;5.15;;
34405;SDS011;20658;45.630;8.886;2024-02-26T10:16:55;11.70;;;5.28;;
34405;SDS011;20658;45.630;8.886;2024-02-26T10:19:25;11.82;;;5.57;;
34405;SDS011;20658;45.630;8.886;2024-02-26T10:21:59;9.90;;;5.05;;
34405;SDS011;20658;45.630;8.886;2024-02-26T10:24:29;9.27;;;5.15;;
34405;SDS011;20658;45.630;8.886;2024-02-26T10:27:00;13.93;;;5.68;;
34405;SDS011;20658;45.630;8.886;2024-02-26T10:29:31;13.13;;;6.35;;
34405;SDS011;20658;45.630;8.886;2024-02-26T10:31:59;11.35;;;5.30;;
34405;SDS011;20658;45.630;8.886;2024-02-26T10:34:34;10.45;;;5.57;;
34405;SDS011;20658;45.630;8.886;2024-02-26T10:37:09;14.38;;;7.63;;
34405;SDS011;20658;45.630;8.886;2024-02-26T10:39:38;11.40;;;5.53;;
34405;SDS011;20658;45.630;8.886;2024-02-26T10:42:13;14.32;;;6.38;;
34405;SDS011;20658;45.630;8.886;2024-02-26T10:44:49;15.00;;;6.18;;
34405;SDS011;20658;45.630;8.886;2024-02-26T10:47:17;15.98;;;7.10;;
34405;SDS011;20658;45.630;8.886;2024-02-26T10:49:51;12.52;;;6.07;;
34405;SDS011;20658;45.630;8.886;2024-02-26T10:52:20;52.67;;;34.25;;
34405;SDS011;20658;45.630;8.886;2024-02-26T10:54:53;16.25;;;9.25;;
34405;SDS011;20658;45.630;8.886;2024-02-26T10:57:27;12.27;;;5.90;;
34405;SDS011;20658;45.630;8.886;2024-02-26T11:00:00;11.45;;;5.38;;
34405;SDS011;20658;45.630;8.886;2024-02-26T11:02:31;10.15;;;4.65;;
34405;SDS011;20658;45.630;8.886;2024-02-26T11:05:02;11.25;;;4.88;;
34405;SDS011;20658;45.630;8.886;2024-02-26T11:07:32;9.57;;;5.43;;
34405;SDS011;20658;45.630;8.886;2024-02-26T11:10:07;8.32;;;4.35;;
34405;SDS011;20658;45.630;8.886;2024-02-26T11:15:14;8.10;;;3.90;;
34405;SDS011;20658;45.630;8.886;2024-02-26T11:17:49;8.52;;;4.60;;
34405;SDS011;20658;45.630;8.886;2024-02-26T11:20:26;7.85;;;3.90;;
34405;SDS011;20658;45.630;8.886;2024-02-26T11:23:02;6.78;;;4.25;;
34405;SDS011;20658;45.630;8.886;2024-02-26T11:25:36;10.10;;;5.20;;
34405;SDS011;20658;45.630;8.886;2024-02-26T11:28:08;9.35;;;4.90;;
34405;SDS011;20658;45.630;8.886;2024-02-26T11:30:44;7.25;;;4.18;;
34405;SDS011;20658;45.630;8.886;2024-02-26T11:33:15;13.02;;;5.13;;
34405;SDS011;20658;45.630;8.886;2024-02-26T11:35:49;6.95;;;3.15;;
34405;SDS011;20658;45.630;8.886;2024-02-26T11:38:23;11.55;;;4.57;;
34405;SDS011;20658;45.630;8.886;2024-02-26T11:40:54;7.82;;;4.05;;
34405;SDS011;20658;45.630;8.886;2024-02-26T11:46:24;8.63;;;4.38;;
34405;SDS011;20658;45.630;8.886;2024-02-26T11:49:00;9.77;;;4.00;;
34405;SDS011;20658;45.630;8.886;2024-02-26T11:51:35;8.90;;;4.47;;
34405;SDS011;20658;45.630;8.886;2024-02-26T11:54:08;9.02;;;5.05;;
34405;SDS011;20658;45.630;8.886;2024-02-26T11:56:40;7.43;;;4.53;;
34405;SDS011;20658;45.630;8.886;2024-02-26T11:59:19;9.27;;;5.50;;
34405;SDS011;20658;45.630;8.886;2024-02-26T12:02:18;8.70;;;3.80;;
34405;SDS011;20658;45.630;8.886;2024-02-26T12:05:14;7.97;;;3.85;;
34405;SDS011;20658;45.630;8.886;2024-02-26T12:07:52;17.75;;;5.95;;
34405;SDS011;20658;45.630;8.886;2024-02-26T12:10:23;10.77;;;4.43;;
34405;SDS011;20658;45.630;8.886;2024-02-26T12:12:55;13.63;;;5.25;;
34405;SDS011;20658;45.630;8.886;2024-02-26T12:15:36;9.25;;;5.10;;
34405;SDS011;20658;45.630;8.886;2024-02-26T12:18:07;12.57;;;5.10;;
34405;SDS011;20658;45.630;8.886;2024-02-26T12:20:36;8.15;;;4.30;;
34405;SDS011;20658;45.630;8.886;2024-02-26T12:23:14;10.88;;;4.82;;
34405;SDS011;20658;45.630;8.886;2024-02-26T12:25:43;10.73;;;4.88;;
34405;SDS011;20658;45.630;8.886;2024-02-26T12:28:19;9.10;;;5.78;;
34405;SDS011;20658;45.630;8.886;2024-02-26T12:30:54;11.40;;;5.30;;
34405;SDS011;20658;45.630;8.886;2024-02-26T12:33:25;6.28;;;3.90;;
34405;SDS011;20658;45.630;8.886;2024-02-26T12:35:55;9.90;;;5.28;;
34405;SDS011;20658;45.630;8.886;2024-02-26T12:38:29;8.07;;;4.90;;
34405;SDS011;20658;45.630;8.886;2024-02-26T12:40:59;9.68;;;5.32;;
34405;SDS011;20658;45.630;8.886;2024-02-26T12:43:27;11.40;;;6.32;;
34405;SDS011;20658;45.630;8.886;2024-02-26T12:46:04;11.57;;;6.38;;
34405;SDS011;20658;45.630;8.886;2024-02-26T12:48:38;9.00;;;4.25;;
34405;SDS011;20658;45.630;8.886;2024-02-26T12:51:07;10.57;;;5.38;;
34405;SDS011;20658;45.630;8.886;2024-02-26T12:53:41;8.80;;;5.00;;
34405;SDS011;20658;45.630;8.886;2024-02-26T12:56:16;7.18;;;4.35;;
34405;SDS011;20658;45.630;8.886;2024-02-26T12:58:45;4.55;;;3.17;;
34405;SDS011;20658;45.630;8.886;2024-02-26T13:01:16;7.97;;;4.63;;
34405;SDS011;20658;45.630;8.886;2024-02-26T13:03:50;6.63;;;4.40;;
34405;SDS011;20658;45.630;8.886;2024-02-26T13:06:19;5.80;;;3.65;;
34405;SDS011;20658;45.630;8.886;2024-02-26T13:08:49;7.55;;;3.80;;
34405;SDS011;20658;45.630;8.886;2024-02-26T13:11:24;8.80;;;3.63;;
34405;SDS011;20658;45.630;8.886;2024-02-26T13:14:00;7.68;;;4.00;;
34405;SDS011;20658;45.630;8.886;2024-02-26T13:16:35;8.82;;;4.70;;
34405;SDS011;20658;45.630;8.886;2024-02-26T13:19:12;21.65;;;10.68;;
34405;SDS011;20658;45.630;8.886;2024-02-26T13:21:46;13.50;;;6.72;;
34405;SDS011;20658;45.630;8.886;2024-02-26T13:24:14;6.95;;;3.63;;
34405;SDS011;20658;45.630;8.886;2024-02-26T13:26:44;6.13;;;3.42;;
34405;SDS011;20658;45.630;8.886;2024-02-26T13:29:18;7.28;;;3.58;;
34405;SDS011;20658;45.630;8.886;2024-02-26T13:31:48;10.20;;;4.63;;
34405;SDS011;20658;45.630;8.886;2024-02-26T13:34:23;8.82;;;5.57;;
34405;SDS011;20658;45.630;8.886;2024-02-26T13:36:53;9.32;;;4.75;;
34405;SDS011;20658;45.630;8.886;2024-02-26T13:39:27;9.13;;;5.25;;
34405;SDS011;20658;45.630;8.886;2024-02-26T13:41:56;11.07;;;5.57;;
34405;SDS011;20658;45.630;8.886;2024-02-26T13:44:25;8.68;;;4.45;;
34405;SDS011;20658;45.630;8.886;2024-02-26T13:46:55;8.45;;;4.43;;
34405;SDS011;20658;45.630;8.886;2024-02-26T13:49:23;9.63;;;4.00;;
34405;SDS011;20658;45.630;8.886;2024-02-26T13:51:52;4.03;;;2.38;;
34405;SDS011;20658;45.630;8.886;2024-02-26T13:54:20;5.28;;;2.97;;
34405;SDS011;20658;45.630;8.886;2024-02-26T13:56:49;8.30;;;3.53;;
34405;SDS011;20658;45.630;8.886;2024-02-26T13:59:18;7.57;;;3.33;;
34405;SDS011;20658;45.630;8.886;2024-02-26T14:01:47;6.60;;;3.33;;
34405;SDS011;20658;45.630;8.886;2024-02-26T14:04:17;6.35;;;3.15;;
34405;SDS011;20658;45.630;8.886;2024-02-26T14:06:50;10.13;;;4.43;;
34405;SDS011;20658;45.630;8.886;2024-02-26T14:09:19;9.65;;;5.05;;
34405;SDS011;20658;45.630;8.886;2024-02-26T14:11:48;10.02;;;3.22;;
34405;SDS011;20658;45.630;8.886;2024-02-26T14:14:16;14.32;;;6.05;;
34405;SDS011;20658;45.630;8.886;2024-02-26T14:16:45;10.77;;;4.35;;
34405;SDS011;20658;45.630;8.886;2024-02-26T14:19:13;11.82;;;4.07;;
34405;SDS011;20658;45.630;8.886;2024-02-26T14:21:43;7.57;;;3.17;;
34405;SDS011;20658;45.630;8.886;2024-02-26T14:24:12;9.93;;;4.60;;
34405;SDS011;20658;45.630;8.886;2024-02-26T14:26:40;9.27;;;3.85;;
34405;SDS011;20658;45.630;8.886;2024-02-26T14:29:09;13.35;;;8.93;;
34405;SDS011;20658;45.630;8.886;2024-02-26T14:31:43;4.70;;;2.90;;
34405;SDS011;20658;45.630;8.886;2024-02-26T14:34:11;6.30;;;2.85;;
34405;SDS011;20658;45.630;8.886;2024-02-26T14:36:40;6.60;;;2.55;;
34405;SDS011;20658;45.630;8.886;2024-02-26T14:39:10;4.32;;;2.15;;
34405;SDS011;20658;45.630;8.886;2024-02-26T14:41:44;8.65;;;5.50;;
34405;SDS011;20658;45.630;8.886;2024-02-26T14:44:12;13.73;;;6.82;;
34405;SDS011;20658;45.630;8.886;2024-02-26T14:46:41;11.70;;;5.50;;
34405;SDS011;20658;45.630;8.886;2024-02-26T14:49:10;10.55;;;4.93;;
34405;SDS011;20658;45.630;8.886;2024-02-26T14:51:39;28.13;;;14.45;;
34405;SDS011;20658;45.630;8.886;2024-02-26T14:54:07;15.43;;;8.65;;
34405;SDS011;20658;45.630;8.886;2024-02-26T14:56:37;20.08;;;9.88;;
34405;SDS011;20658;45.630;8.886;2024-02-26T14:59:11;13.13;;;6.07;;
34405;SDS011;20658;45.630;8.886;2024-02-26T15:01:40;9.43;;;4.18;;
34405;SDS011;20658;45.630;8.886;2024-02-26T15:04:08;15.88;;;7.95;;
34405;SDS011;20658;45.630;8.886;2024-02-26T15:06:37;8.45;;;4.32;;